Airfield :
LOGIN :

Register | Disclaimer

   EN    FR    IT 

 










Legend :    VFR   Marginal VFR   IFR   Intensive IFR   Very Intensive IFR
Visi :
Ceiling :
>= 8 km
>= 3000ft
5 to 8 km
1000 to 3000 ft
1500m to 5 km
500 to 1000 ft
800 to 1500m
200 to 500 ft
< 800m
< 200 ft
Symbols :   Thunderstorms  Fog  Heavy snow  Heavy precipitations  Wind > 20 kt
SIGMETs :     Misc.  Thunderstorms  Icing  Turbulence  Mountain Waves  Volcanic Ashes






- Airport Elevation : 648 ft
- IATA code : INI


LYNI - Nis Constantine

CURRENT METAR :
  • 040630Z VRB02KT CAVOK 25/18 Q1017 NOSIG

EXPIRED METARs :
  • 040600Z VRB02KT CAVOK 24/18 Q1017 NOSIG
  • 040530Z 23003KT 190V270 CAVOK 22/19 Q1017 NOSIG
  • 040500Z VRB02KT CAVOK 21/19 Q1017 NOSIG
  • 040430Z 00000KT CAVOK 21/19 Q1017 NOSIG

TAF TAF LYNI
Valid from the 04 at 06:00 until the 05 at 06:00 UTC


040500Z 0406/0506 08008KT CAVOK TX34/0413Z TN20/0503Z
PROB40
TEMPO 0413/0417 VRB15G25KT 5000 TSRA SCT035CB SCT040



MET'MAP, your aeronautical weather chart ! - Copyright ORBIFLY December 2007 - Disclaimer

ORBIFLY MET'MAP TEAM :

Programming & Development : Alexandra Zaïnal
Original concept : Baudouin d'Aumeries
Technical & hardware support : Manuel Goepfert
Assistance : Marc-Olivier Méhu




SOURCES & CREDITS :

   NOAA